createdAt,value
2022-12-05T00:02:03.891Z,8.31
2022-12-05T00:04:31.907Z,8.23
2022-12-05T00:06:59.847Z,8.26
2022-12-05T00:09:27.863Z,8.25
2022-12-05T00:11:57.644Z,8.28
2022-12-05T00:14:25.838Z,8.27
2022-12-05T00:16:55.203Z,8.26
2022-12-05T00:19:23.738Z,8.25
2022-12-05T00:21:51.672Z,8.27
2022-12-05T00:24:19.934Z,8.27
2022-12-05T00:26:48.564Z,8.26
2022-12-05T00:29:16.563Z,8.27
2022-12-05T00:31:44.510Z,8.22
2022-12-05T00:34:14.197Z,8.26
2022-12-05T00:36:42.360Z,8.26
2022-12-05T00:39:12.669Z,8.26
2022-12-05T00:41:40.999Z,8.23
2022-12-05T00:44:09.342Z,8.22
2022-12-05T00:46:37.865Z,8.19
2022-12-05T00:49:07.714Z,8.19
2022-12-05T00:51:39.761Z,8.23
2022-12-05T00:54:09.937Z,8.23
2022-12-05T00:56:38.533Z,8.23
2022-12-05T00:59:07.829Z,8.25
2022-12-05T01:01:38.225Z,8.21
2022-12-05T01:04:08.008Z,8.22
2022-12-05T01:06:37.818Z,8.15
2022-12-05T01:09:07.858Z,8.24
2022-12-05T01:11:40.913Z,8.18
2022-12-05T01:14:10.022Z,8.19
2022-12-05T01:16:40.099Z,8.17
2022-12-05T01:19:11.811Z,8.17
2022-12-05T01:21:41.610Z,8.18
2022-12-05T01:24:10.379Z,8.14
2022-12-05T01:26:38.660Z,8.17
2022-12-05T01:29:06.647Z,8.21
2022-12-05T01:31:36.867Z,8.16
2022-12-05T01:34:07.444Z,8.19
2022-12-05T01:36:35.766Z,8.16
2022-12-05T01:39:05.231Z,7.99
2022-12-05T01:41:36.382Z,8.16
2022-12-05T01:44:06.877Z,8.14
2022-12-05T01:46:36.918Z,8.15
2022-12-05T01:49:09.120Z,8.18
2022-12-05T01:51:39.752Z,8.17
2022-12-05T01:54:11.502Z,8.16
2022-12-05T01:56:43.467Z,8.17
2022-12-05T01:59:12.670Z,8.17
2022-12-05T02:01:41.871Z,8.04
2022-12-05T02:04:10.959Z,8.17
2022-12-05T02:06:39.972Z,8.17
2022-12-05T02:09:09.843Z,8.21
2022-12-05T02:11:47.323Z,8.27
2022-12-05T02:14:26.793Z,8.28
2022-12-05T02:17:12.794Z,8.30
2022-12-05T02:20:19.788Z,8.30
2022-12-05T02:23:21.189Z,8.28
2022-12-05T02:26:14.363Z,8.28
2022-12-05T02:29:09.866Z,8.23
2022-12-05T02:31:47.644Z,8.22
2022-12-05T02:34:22.444Z,8.24
2022-12-05T02:36:58.723Z,8.24
2022-12-05T02:39:36.882Z,8.22
2022-12-05T02:42:11.841Z,8.23
2022-12-05T02:44:46.744Z,8.23
2022-12-05T02:47:21.046Z,8.21
2022-12-05T02:49:51.126Z,8.23
2022-12-05T02:52:19.988Z,8.22
2022-12-05T02:54:50.501Z,8.19
2022-12-05T02:57:20.115Z,8.18
2022-12-05T02:59:48.214Z,8.17
2022-12-05T03:02:27.017Z,8.17
2022-12-05T03:04:59.669Z,8.19
2022-12-05T03:07:30.649Z,8.16
2022-12-05T03:10:03.835Z,8.18
2022-12-05T03:12:38.617Z,8.14
2022-12-05T03:15:11.831Z,8.14
2022-12-05T03:17:45.628Z,8.11
2022-12-05T03:20:19.178Z,8.18
2022-12-05T03:22:53.352Z,8.19
2022-12-05T03:25:24.547Z,8.13
2022-12-05T03:27:58.633Z,8.06
2022-12-05T03:30:26.806Z,8.00
2022-12-05T03:33:04.131Z,7.94
2022-12-05T03:35:38.427Z,7.88
2022-12-05T03:38:12.201Z,7.85
2022-12-05T03:40:45.217Z,7.86
2022-12-05T03:43:20.160Z,7.76
2022-12-05T03:45:54.206Z,7.57
2022-12-05T03:48:31.484Z,7.60
2022-12-05T03:51:01.459Z,7.70
2022-12-05T03:53:33.219Z,7.75
2022-12-05T03:56:06.434Z,7.70
2022-12-05T03:58:41.944Z,7.63
2022-12-05T04:01:12.334Z,7.57
2022-12-05T04:03:45.391Z,7.58
2022-12-05T04:06:23.678Z,7.69
2022-12-05T04:08:55.960Z,7.77
2022-12-05T04:11:28.679Z,7.79
2022-12-05T04:14:02.146Z,7.67
2022-12-05T04:16:52.408Z,7.44
2022-12-05T04:19:49.959Z,7.54
2022-12-05T04:22:18.005Z,7.42
2022-12-05T04:25:03.860Z,7.37
2022-12-05T04:27:39.847Z,7.18
2022-12-05T04:30:10.689Z,7.36
2022-12-05T04:32:45.914Z,7.37
2022-12-05T04:35:20.545Z,7.38
2022-12-05T04:37:52.687Z,7.44
2022-12-05T04:40:24.190Z,7.52
2022-12-05T04:42:54.650Z,7.54
2022-12-05T04:45:25.581Z,7.55
2022-12-05T04:47:57.836Z,7.63
2022-12-05T04:50:30.126Z,7.68
2022-12-05T04:53:00.513Z,7.71
2022-12-05T04:55:29.880Z,7.71
2022-12-05T04:58:06.564Z,7.84
2022-12-05T05:00:40.803Z,7.86
2022-12-05T05:03:15.530Z,7.93
2022-12-05T05:05:47.561Z,7.97
2022-12-05T05:08:20.059Z,7.93
2022-12-05T05:10:55.680Z,7.95
2022-12-05T05:13:23.706Z,7.95
2022-12-05T05:15:51.687Z,7.96
2022-12-05T05:18:19.660Z,7.96
2022-12-05T05:20:48.895Z,8.03
2022-12-05T05:23:16.858Z,8.05
2022-12-05T05:25:44.799Z,7.99
2022-12-05T05:28:12.724Z,7.94
2022-12-05T05:30:40.674Z,7.89
2022-12-05T05:33:08.608Z,7.84
2022-12-05T05:35:37.745Z,7.82
2022-12-05T05:38:07.075Z,7.77
2022-12-05T05:40:36.726Z,7.76
2022-12-05T05:43:05.171Z,7.74
2022-12-05T05:45:33.129Z,7.71
2022-12-05T05:48:01.043Z,7.76
2022-12-05T05:50:29.114Z,7.82
2022-12-05T05:52:57.285Z,7.87
2022-12-05T05:55:26.628Z,7.95
2022-12-05T05:57:54.528Z,7.98
2022-12-05T06:00:22.889Z,8.05
2022-12-05T06:02:50.867Z,8.09
2022-12-05T06:05:18.942Z,8.08
2022-12-05T06:07:46.893Z,8.09
2022-12-05T06:10:15.007Z,8.12
2022-12-05T06:12:44.347Z,8.10
2022-12-05T06:15:12.977Z,8.05
2022-12-05T06:17:41.034Z,8.05
2022-12-05T06:20:09.930Z,8.03
2022-12-05T06:22:37.993Z,8.00
2022-12-05T06:25:07.121Z,8.06
2022-12-05T06:27:35.242Z,8.06
2022-12-05T06:30:05.692Z,8.04
2022-12-05T06:32:33.699Z,8.06
2022-12-05T06:35:07.874Z,8.11
2022-12-05T06:37:37.702Z,8.17
2022-12-05T06:40:07.090Z,8.25
2022-12-05T06:42:35.089Z,8.26
2022-12-05T06:45:04.502Z,8.31
2022-12-05T06:47:32.679Z,8.33
2022-12-05T06:50:00.738Z,8.38
2022-12-05T06:52:28.792Z,8.43
2022-12-05T06:54:56.732Z,8.45
2022-12-05T06:57:24.656Z,8.46
2022-12-05T07:00:12.636Z,8.43
2022-12-05T07:02:41.997Z,8.47
2022-12-05T07:05:10.667Z,8.47
2022-12-05T07:07:38.957Z,8.50
2022-12-05T07:10:08.454Z,8.52
2022-12-05T07:12:36.424Z,8.51
2022-12-05T07:15:04.843Z,8.52
2022-12-05T07:17:37.241Z,8.55
2022-12-05T07:20:09.907Z,8.58
2022-12-05T07:22:38.374Z,8.63
2022-12-05T07:25:07.455Z,8.62
2022-12-05T07:27:35.455Z,8.63
2022-12-05T07:30:03.490Z,8.67
2022-12-05T07:32:33.308Z,8.52
2022-12-05T07:35:01.264Z,8.70
2022-12-05T07:37:30.935Z,8.76
2022-12-05T07:39:59.150Z,8.83
2022-12-05T07:42:27.352Z,8.89
2022-12-05T07:44:55.311Z,8.86
2022-12-05T07:47:23.289Z,8.93
2022-12-05T07:49:51.261Z,8.88
2022-12-05T07:52:19.184Z,8.85
2022-12-05T07:54:48.563Z,8.85
2022-12-05T07:57:16.515Z,8.85
2022-12-05T07:59:44.496Z,8.88
2022-12-05T08:02:12.581Z,8.88
2022-12-05T08:04:40.563Z,8.92
2022-12-05T08:07:11.256Z,8.93
2022-12-05T08:09:39.198Z,8.97
2022-12-05T08:12:09.026Z,9.03
2022-12-05T08:14:37.090Z,9.03
2022-12-05T08:17:05.790Z,9.07
2022-12-05T08:19:33.750Z,9.10
2022-12-05T08:22:01.790Z,9.11
2022-12-05T08:24:29.756Z,9.13
2022-12-05T08:26:57.655Z,9.17
2022-12-05T08:29:27.133Z,9.21
2022-12-05T08:31:55.062Z,9.25
2022-12-05T08:34:23.024Z,9.29
2022-12-05T08:36:51.471Z,9.28
2022-12-05T08:39:20.870Z,9.35
2022-12-05T08:41:49.693Z,9.23
2022-12-05T08:44:18.556Z,9.33
2022-12-05T08:46:50.071Z,9.30
2022-12-05T08:49:18.663Z,9.32
2022-12-05T08:51:46.755Z,9.36
2022-12-05T08:54:15.033Z,9.37
2022-12-05T08:56:42.955Z,9.43
2022-12-05T08:59:10.898Z,9.46
2022-12-05T09:01:39.762Z,9.49
2022-12-05T09:04:09.666Z,9.50
2022-12-05T09:06:39.383Z,9.50
2022-12-05T09:09:11.666Z,9.52
2022-12-05T09:11:46.220Z,9.52
2022-12-05T09:14:14.717Z,9.38
2022-12-05T09:16:45.776Z,9.38
2022-12-05T09:19:16.854Z,9.35
2022-12-05T09:21:45.589Z,9.33
2022-12-05T09:24:14.522Z,9.32
2022-12-05T09:26:43.037Z,9.33
2022-12-05T09:29:16.655Z,9.34
2022-12-05T09:31:46.527Z,9.41
2022-12-05T09:34:17.923Z,9.38
2022-12-05T09:36:49.782Z,9.39
2022-12-05T09:39:17.931Z,9.41
2022-12-05T09:42:09.818Z,9.45
2022-12-05T09:44:45.392Z,9.47
2022-12-05T09:47:23.219Z,9.48
2022-12-05T09:49:57.027Z,9.50
2022-12-05T09:52:28.537Z,9.50
2022-12-05T09:54:58.467Z,9.40
2022-12-05T09:57:34.848Z,9.52
2022-12-05T10:00:07.603Z,9.55
2022-12-05T10:02:47.079Z,9.57
2022-12-05T10:05:22.231Z,9.54
2022-12-05T10:08:02.940Z,9.52
2022-12-05T10:10:45.251Z,9.46
2022-12-05T10:13:24.212Z,9.56
2022-12-05T10:15:57.629Z,9.56
2022-12-05T10:18:33.420Z,9.57
2022-12-05T10:21:06.428Z,9.59
2022-12-05T10:23:59.902Z,9.44
2022-12-05T10:26:31.741Z,9.60
2022-12-05T10:29:07.604Z,9.63
2022-12-05T10:31:38.646Z,9.67
2022-12-05T10:34:16.173Z,9.72
2022-12-05T10:36:55.818Z,9.78
2022-12-05T10:39:23.823Z,9.81
2022-12-05T10:41:51.811Z,9.78
2022-12-05T10:44:19.835Z,9.80
2022-12-05T10:46:47.778Z,9.79
2022-12-05T10:49:15.674Z,9.83
2022-12-05T10:51:43.687Z,9.81
2022-12-05T10:54:19.328Z,9.80
2022-12-05T10:56:48.495Z,9.73
2022-12-05T10:59:18.340Z,9.76
2022-12-05T11:01:50.026Z,9.71
2022-12-05T11:04:24.970Z,9.67
2022-12-05T11:06:56.872Z,9.64
2022-12-05T11:09:28.246Z,9.66
2022-12-05T11:12:06.386Z,9.63
2022-12-05T11:14:36.269Z,9.62
2022-12-05T11:17:06.196Z,9.59
2022-12-05T11:19:35.905Z,9.56
2022-12-05T11:22:05.402Z,9.54
2022-12-05T11:24:36.822Z,9.56
2022-12-05T11:27:26.870Z,9.55
2022-12-05T11:29:58.405Z,9.51
2022-12-05T11:32:29.025Z,9.49
2022-12-05T11:35:05.725Z,9.53
2022-12-05T11:37:39.402Z,9.52
2022-12-05T11:40:17.123Z,9.52
2022-12-05T11:43:03.039Z,9.51
2022-12-05T11:45:52.286Z,9.49
2022-12-05T11:48:32.830Z,9.53
2022-12-05T11:51:16.464Z,9.52
2022-12-05T11:54:13.828Z,9.56
2022-12-05T11:56:49.388Z,9.56
2022-12-05T11:59:35.164Z,9.52
2022-12-05T12:02:17.304Z,9.57
2022-12-05T12:04:55.980Z,9.59
2022-12-05T12:07:45.146Z,9.59
2022-12-05T12:10:24.689Z,9.60
2022-12-05T12:13:06.901Z,9.60
2022-12-05T12:15:49.697Z,9.63
2022-12-05T12:18:33.278Z,9.65
2022-12-05T12:21:17.385Z,9.68
2022-12-05T12:23:57.154Z,9.68
2022-12-05T12:26:38.001Z,9.67
2022-12-05T12:29:17.193Z,9.69
2022-12-05T12:32:00.453Z,9.75
2022-12-05T12:34:52.686Z,9.76
2022-12-05T12:37:31.508Z,9.78
2022-12-05T12:40:08.078Z,9.72
2022-12-05T12:42:41.351Z,9.66
2022-12-05T12:45:32.672Z,9.64
2022-12-05T12:48:14.008Z,9.65
2022-12-05T12:50:44.818Z,9.67
2022-12-05T12:53:32.435Z,9.64
2022-12-05T12:56:08.488Z,9.58
2022-12-05T12:58:48.175Z,9.57
2022-12-05T13:01:26.917Z,9.57
2022-12-05T13:04:02.887Z,9.59
2022-12-05T13:06:35.925Z,9.58
2022-12-05T13:09:07.020Z,9.58
2022-12-05T13:11:38.900Z,9.57
2022-12-05T13:14:13.134Z,9.56
2022-12-05T13:16:46.382Z,9.58
2022-12-05T13:19:27.103Z,9.57
2022-12-05T13:21:58.138Z,9.56
2022-12-05T13:24:28.336Z,9.54
2022-12-05T13:27:01.330Z,9.55
2022-12-05T13:29:33.739Z,9.55
2022-12-05T13:32:05.224Z,9.53
2022-12-05T13:34:46.382Z,9.36
2022-12-05T13:37:39.395Z,9.43
2022-12-05T13:40:37.550Z,9.38
2022-12-05T13:43:06.389Z,9.32
2022-12-05T13:45:35.546Z,9.27
2022-12-05T13:48:15.206Z,9.18
2022-12-05T13:50:49.378Z,9.10
2022-12-05T13:53:28.425Z,9.01
2022-12-05T13:55:58.960Z,8.96
2022-12-05T13:58:45.297Z,9.00
2022-12-05T14:01:53.794Z,9.03
2022-12-05T14:04:45.709Z,8.98
2022-12-05T14:07:13.668Z,8.97
2022-12-05T14:09:53.717Z,8.94
2022-12-05T14:12:45.249Z,8.93
2022-12-05T14:15:29.390Z,9.03
2022-12-05T14:18:01.434Z,9.05
2022-12-05T14:20:45.720Z,8.95
2022-12-05T14:23:29.631Z,8.64
2022-12-05T14:26:13.219Z,8.77
2022-12-05T14:28:58.116Z,8.75
2022-12-05T14:31:43.832Z,8.70
2022-12-05T14:34:20.744Z,8.64
2022-12-05T14:36:57.803Z,8.50
2022-12-05T14:39:34.301Z,8.53
2022-12-05T14:42:09.504Z,8.52
2022-12-05T14:44:37.820Z,8.50
2022-12-05T14:47:07.975Z,8.49
2022-12-05T14:49:54.688Z,8.51
2022-12-05T14:52:26.206Z,8.53
2022-12-05T14:54:59.234Z,8.49
2022-12-05T14:57:27.751Z,8.48
2022-12-05T14:59:58.608Z,8.47
2022-12-05T15:02:31.152Z,8.45
2022-12-05T15:05:04.914Z,8.42
2022-12-05T15:07:37.625Z,8.46
2022-12-05T15:10:09.184Z,8.41
2022-12-05T15:12:43.547Z,8.37
2022-12-05T15:15:19.876Z,8.31
2022-12-05T15:17:52.500Z,8.29
2022-12-05T15:20:34.374Z,8.27
2022-12-05T15:23:40.531Z,8.26
2022-12-05T15:26:45.606Z,8.21
2022-12-05T15:29:09.287Z,8.15
2022-12-05T15:31:40.932Z,8.10
2022-12-05T15:34:15.793Z,8.09
2022-12-05T15:36:49.353Z,8.09
2022-12-05T15:39:23.910Z,8.06
2022-12-05T15:41:52.725Z,8.06
2022-12-05T15:44:26.854Z,8.09
2022-12-05T15:46:57.347Z,8.19
2022-12-05T15:49:26.932Z,8.36
2022-12-05T15:51:58.397Z,8.26
2022-12-05T15:54:33.007Z,8.40
2022-12-05T15:57:07.284Z,8.42
2022-12-05T15:59:39.699Z,8.40
2022-12-05T16:02:16.938Z,8.41
2022-12-05T16:04:50.388Z,8.43
2022-12-05T16:07:18.933Z,8.46
2022-12-05T16:09:48.711Z,8.46
2022-12-05T16:12:25.000Z,8.48
2022-12-05T16:15:01.017Z,8.48
2022-12-05T16:17:37.775Z,8.41
2022-12-05T16:20:24.608Z,8.35
2022-12-05T16:22:54.816Z,8.30
2022-12-05T16:25:27.626Z,8.37
2022-12-05T16:28:00.533Z,8.45
2022-12-05T16:30:31.429Z,8.49
2022-12-05T16:33:02.761Z,8.55
2022-12-05T16:35:33.963Z,8.60
2022-12-05T16:38:18.334Z,8.63
2022-12-05T16:40:57.131Z,8.64
2022-12-05T16:43:42.063Z,8.59
2022-12-05T16:46:41.857Z,8.48
2022-12-05T16:49:23.625Z,8.39
2022-12-05T16:51:57.201Z,8.32
2022-12-05T16:54:25.086Z,8.28
2022-12-05T16:56:54.823Z,8.21
2022-12-05T16:59:25.393Z,8.25
2022-12-05T17:01:53.425Z,8.23
2022-12-05T17:04:21.344Z,8.28
2022-12-05T17:06:49.149Z,8.38
2022-12-05T17:09:16.995Z,8.41
2022-12-05T17:11:47.010Z,8.33
2022-12-05T17:14:18.487Z,8.20
2022-12-05T17:16:47.078Z,8.23
2022-12-05T17:19:15.224Z,8.22
2022-12-05T17:21:43.975Z,8.20
2022-12-05T17:24:17.211Z,8.18
2022-12-05T17:26:46.179Z,8.29
2022-12-05T17:29:14.347Z,8.30
2022-12-05T17:31:43.505Z,8.29
2022-12-05T17:34:16.691Z,8.32
2022-12-05T17:36:45.369Z,8.37
2022-12-05T17:39:13.391Z,8.35
2022-12-05T17:41:41.403Z,8.41
2022-12-05T17:44:13.970Z,8.47
2022-12-05T17:46:44.571Z,8.49
2022-12-05T17:49:14.735Z,8.54
2022-12-05T17:51:58.845Z,8.57
2022-12-05T17:54:32.199Z,8.59
2022-12-05T17:57:01.355Z,8.68
2022-12-05T17:59:29.182Z,8.59
2022-12-05T18:01:58.567Z,8.61
2022-12-05T18:04:26.387Z,8.59
2022-12-05T18:06:56.076Z,8.57
2022-12-05T18:09:23.950Z,8.52
2022-12-05T18:11:51.742Z,8.45
2022-12-05T18:14:19.576Z,8.44
2022-12-05T18:16:47.714Z,8.39
2022-12-05T18:19:16.956Z,8.36
2022-12-05T18:24:17.560Z,8.43
2022-12-05T18:26:45.712Z,8.48
2022-12-05T18:29:13.647Z,8.52
2022-12-05T18:31:42.936Z,8.51
2022-12-05T18:34:10.778Z,8.59
2022-12-05T18:36:40.034Z,8.58
2022-12-05T18:39:07.863Z,8.59
2022-12-05T18:41:35.819Z,8.58
2022-12-05T18:44:03.743Z,8.62
2022-12-05T18:46:31.697Z,8.64
2022-12-05T18:49:03.329Z,8.68
2022-12-05T18:51:31.845Z,8.70
2022-12-05T18:54:01.307Z,8.71
2022-12-05T18:56:31.167Z,8.66
2022-12-05T18:59:01.860Z,8.73
2022-12-05T19:01:32.320Z,8.73
2022-12-05T19:04:02.315Z,8.69
2022-12-05T19:06:32.809Z,8.61
2022-12-05T19:09:04.704Z,8.65
2022-12-05T19:11:33.234Z,8.61
2022-12-05T19:14:02.964Z,8.58
2022-12-05T19:16:32.995Z,8.57
2022-12-05T19:19:02.348Z,8.49
2022-12-05T19:21:32.206Z,8.42
2022-12-05T19:24:00.444Z,8.45
2022-12-05T19:26:29.879Z,8.43
2022-12-05T19:28:58.344Z,8.38
2022-12-05T19:31:27.606Z,8.32
2022-12-05T19:34:01.196Z,8.29
2022-12-05T19:36:33.204Z,8.29
2022-12-05T19:39:01.082Z,8.29
2022-12-05T19:41:31.222Z,8.34
2022-12-05T19:44:00.780Z,8.37
2022-12-05T19:46:30.422Z,8.32
2022-12-05T19:49:04.976Z,8.20
2022-12-05T19:51:34.152Z,8.21
2022-12-05T19:54:04.481Z,8.11
2022-12-05T19:56:35.112Z,7.98
2022-12-05T19:59:03.736Z,7.78
2022-12-05T20:01:32.938Z,7.80
2022-12-05T20:04:02.603Z,7.78
2022-12-05T20:06:33.421Z,7.77
2022-12-05T20:09:01.564Z,7.74
2022-12-05T20:11:31.205Z,7.69
2022-12-05T20:14:02.653Z,7.72
2022-12-05T20:16:31.375Z,7.73
2022-12-05T20:18:59.986Z,7.34
2022-12-05T20:21:30.167Z,7.55
2022-12-05T20:23:59.332Z,7.68
2022-12-05T20:26:29.559Z,7.73
2022-12-05T20:28:58.810Z,7.75
2022-12-05T20:31:30.075Z,7.78
2022-12-05T20:33:58.183Z,7.77
2022-12-05T20:36:29.294Z,7.79
2022-12-05T20:38:58.219Z,7.74
2022-12-05T20:41:26.624Z,7.71
2022-12-05T20:43:56.425Z,7.69
2022-12-05T20:46:24.884Z,7.72
2022-12-05T20:48:54.497Z,7.67
2022-12-05T20:51:24.443Z,7.64
2022-12-05T20:53:52.800Z,7.62
2022-12-05T20:56:22.905Z,7.60
2022-12-05T20:58:52.713Z,7.53
2022-12-05T21:01:22.286Z,7.73
2022-12-05T21:03:51.380Z,7.70
2022-12-05T21:06:24.051Z,7.95
2022-12-05T21:08:52.503Z,8.09
2022-12-05T21:11:21.310Z,8.13
2022-12-05T21:13:49.476Z,8.11
2022-12-05T21:16:19.336Z,8.06
2022-12-05T21:18:47.891Z,7.96
2022-12-05T21:21:18.261Z,7.85
2022-12-05T21:23:49.428Z,7.75
2022-12-05T21:26:18.968Z,7.71
2022-12-05T21:28:47.746Z,7.70
2022-12-05T21:31:18.731Z,7.71
2022-12-05T21:33:48.627Z,7.70
2022-12-05T21:36:16.856Z,7.63
2022-12-05T21:38:44.786Z,7.56
2022-12-05T21:41:14.031Z,7.51
2022-12-05T21:43:41.858Z,7.58
2022-12-05T21:46:09.775Z,7.55
2022-12-05T21:48:38.128Z,7.41
2022-12-05T21:51:07.656Z,7.55
2022-12-05T21:53:38.280Z,7.53
2022-12-05T21:56:08.520Z,7.48
2022-12-05T21:58:42.158Z,7.45
2022-12-05T22:01:13.198Z,7.49
2022-12-05T22:03:41.255Z,7.42
2022-12-05T22:06:11.117Z,7.51
2022-12-05T22:08:40.130Z,7.49
2022-12-05T22:11:09.517Z,7.51
2022-12-05T22:13:39.298Z,7.50
2022-12-05T22:16:08.006Z,7.46
2022-12-05T22:18:36.776Z,7.44
2022-12-05T22:21:10.804Z,7.51
2022-12-05T22:23:38.656Z,7.54
2022-12-05T22:26:09.462Z,7.61
2022-12-05T22:28:39.812Z,7.70
2022-12-05T22:31:09.767Z,7.61
2022-12-05T22:33:38.311Z,7.70
2022-12-05T22:36:08.473Z,7.67
2022-12-05T22:38:38.161Z,7.66
2022-12-05T22:41:07.881Z,7.76
2022-12-05T22:43:38.823Z,7.88
2022-12-05T22:46:08.587Z,7.92
2022-12-05T22:48:36.695Z,7.93
2022-12-05T22:51:07.326Z,8.03
2022-12-05T22:53:35.843Z,8.07
2022-12-05T22:56:05.871Z,8.03
2022-12-05T22:58:33.897Z,8.18
2022-12-05T23:01:12.628Z,8.22
2022-12-05T23:03:40.603Z,8.26
2022-12-05T23:06:12.009Z,8.29
2022-12-05T23:08:40.875Z,8.31
2022-12-05T23:11:10.187Z,8.35
2022-12-05T23:13:39.399Z,8.33
2022-12-05T23:16:11.161Z,8.32
2022-12-05T23:18:47.542Z,8.41
2022-12-05T23:21:20.729Z,8.39
2022-12-05T23:23:49.682Z,8.35
2022-12-05T23:26:19.163Z,8.37
2022-12-05T23:28:47.134Z,8.39
2022-12-05T23:31:17.092Z,8.41
2022-12-05T23:33:45.023Z,8.37
2022-12-05T23:36:14.025Z,8.43
2022-12-05T23:38:43.364Z,8.44
2022-12-05T23:41:14.486Z,8.41
2022-12-05T23:43:43.289Z,8.35
2022-12-05T23:46:13.233Z,8.34
2022-12-05T23:48:42.848Z,8.28
2022-12-05T23:51:13.364Z,8.25
2022-12-05T23:53:43.828Z,8.20
2022-12-05T23:56:13.174Z,8.25
2022-12-05T23:58:41.517Z,8.23
